Time;durP1;ratioP1;P1;durP2;ratioP2;P2;SDS_P1;SDS_P2;PMS_P1;PMS_P2;Temp;Humidity;BMP_temperature;BMP_pressure;BME280_temperature;BME280_humidity;BME280_pressure;Samples;Min_cycle;Max_cycle;Signal;HPM_P1;HPM_P2
2023/05/26 00:01:11;;;;;;;17.70;4.47;;;;;;;;;;5012078;28;20223;-68
2023/05/26 00:03:38;;;;;;;12.80;4.50;;;;;;;;;;4994913;28;20666;-69
2023/05/26 00:06:10;;;;;;;18.67;5.37;;;;;;;;;;5012270;28;20177;-69
2023/05/26 00:08:36;;;;;;;17.67;4.73;;;;;;;;;;5012161;28;20184;-68
2023/05/26 00:11:03;;;;;;;15.57;5.00;;;;;;;;;;5012091;28;20270;-69
2023/05/26 00:13:30;;;;;;;14.43;4.83;;;;;;;;;;4994682;28;20662;-69
2023/05/26 00:15:56;;;;;;;15.50;4.80;;;;;;;;;;4988207;28;20191;-69
2023/05/26 00:18:27;;;;;;;15.57;4.83;;;;;;;;;;4992316;28;20588;-69
2023/05/26 00:20:53;;;;;;;17.47;5.57;;;;;;;;;;4992252;28;20727;-68
2023/05/26 00:23:21;;;;;;;10.83;4.33;;;;;;;;;;4975236;28;21268;-69
2023/05/26 00:25:48;;;;;;;13.03;4.23;;;;;;;;;;4992070;28;20283;-69
2023/05/26 00:28:16;;;;;;;12.57;4.30;;;;;;;;;;4975139;28;20193;-68
2023/05/26 00:30:43;;;;;;;14.97;4.77;;;;;;;;;;4992107;28;20188;-68
2023/05/26 00:33:10;;;;;;;9.97;3.97;;;;;;;;;;4974896;28;20195;-69
2023/05/26 00:35:37;;;;;;;12.90;3.87;;;;;;;;;;4958569;28;20255;-69
2023/05/26 00:38:05;;;;;;;12.67;4.33;;;;;;;;;;4974745;28;20189;-69
2023/05/26 00:40:35;;;;;;;15.13;3.80;;;;;;;;;;4974289;28;20267;-69
2023/05/26 00:43:02;;;;;;;14.80;4.10;;;;;;;;;;4974563;28;20656;-69
2023/05/26 00:45:28;;;;;;;12.40;3.77;;;;;;;;;;4991822;28;20565;-69
2023/05/26 00:47:55;;;;;;;11.93;3.90;;;;;;;;;;4992147;28;20653;-69
2023/05/26 00:50:22;;;;;;;16.03;4.07;;;;;;;;;;4974241;28;20490;-68
2023/05/26 00:52:48;;;;;;;10.37;3.63;;;;;;;;;;4974454;28;20203;-69
2023/05/26 00:55:16;;;;;;;14.47;3.77;;;;;;;;;;4974526;28;20597;-69
2023/05/26 00:57:43;;;;;;;11.83;3.67;;;;;;;;;;4974170;28;20215;-69
2023/05/26 01:00:11;;;;;;;13.87;4.00;;;;;;;;;;4973999;28;20229;-68
2023/05/26 01:02:39;;;;;;;15.03;4.53;;;;;;;;;;4992242;28;20576;-69
2023/05/26 01:05:06;;;;;;;11.77;3.77;;;;;;;;;;4974581;28;20252;-68
2023/05/26 01:07:33;;;;;;;13.13;3.63;;;;;;;;;;4973503;28;20185;-68
2023/05/26 01:10:00;;;;;;;14.77;3.90;;;;;;;;;;4973987;28;20275;-69
2023/05/26 01:12:29;;;;;;;8.70;3.60;;;;;;;;;;4991234;28;20180;-69
2023/05/26 01:15:00;;;;;;;14.07;4.03;;;;;;;;;;4973713;28;20259;-68
2023/05/26 01:17:32;;;;;;;9.83;3.57;;;;;;;;;;4975585;28;20242;-69
2023/05/26 01:20:07;;;;;;;12.27;3.90;;;;;;;;;;5011148;28;20419;-68
2023/05/26 01:22:50;;;;;;;12.07;3.87;;;;;;;;;;4993021;28;20230;-68
2023/05/26 01:25:32;;;;;;;18.57;4.50;;;;;;;;;;4993591;28;20243;-68
2023/05/26 01:28:06;;;;;;;16.27;4.33;;;;;;;;;;5010720;28;20287;-68
2023/05/26 01:30:34;;;;;;;14.67;4.10;;;;;;;;;;4993171;28;20192;-68
2023/05/26 01:33:00;;;;;;;12.20;4.07;;;;;;;;;;5010710;28;20184;-68
2023/05/26 01:35:27;;;;;;;15.57;4.23;;;;;;;;;;4977097;28;20342;-68
2023/05/26 01:37:55;;;;;;;15.03;3.50;;;;;;;;;;4993231;28;20219;-68
2023/05/26 01:40:21;;;;;;;13.17;3.70;;;;;;;;;;4976422;28;20226;-68
2023/05/26 02:18:21;;;;;;;10.90;3.63;;;;;;;;;;4982981;28;20236;-65
2023/05/26 02:20:53;;;;;;;10.93;3.23;;;;;;;;;;4972604;28;20266;-65
2023/05/26 02:23:19;;;;;;;15.10;4.10;;;;;;;;;;4972555;28;20656;-65
2023/05/26 02:25:46;;;;;;;11.57;3.70;;;;;;;;;;4990378;28;20212;-65
2023/05/26 02:28:13;;;;;;;13.57;3.57;;;;;;;;;;4972684;28;20188;-66
2023/05/26 02:30:39;;;;;;;15.97;4.27;;;;;;;;;;4990248;28;20567;-65
2023/05/26 02:33:08;;;;;;;11.10;4.17;;;;;;;;;;4990574;28;20246;-65
2023/05/26 02:35:35;;;;;;;18.10;3.93;;;;;;;;;;4990343;28;20188;-66
2023/05/26 02:38:02;;;;;;;17.40;4.17;;;;;;;;;;4990363;28;20189;-65
2023/05/26 02:40:29;;;;;;;14.63;3.43;;;;;;;;;;4990135;28;20598;-65
2023/05/26 02:42:59;;;;;;;11.27;3.77;;;;;;;;;;4972780;28;20636;-65
2023/05/26 02:45:26;;;;;;;14.00;3.60;;;;;;;;;;4972674;28;20200;-65
2023/05/26 02:47:52;;;;;;;14.80;3.43;;;;;;;;;;4972564;28;20193;-65
2023/05/26 02:50:19;;;;;;;13.40;3.93;;;;;;;;;;4990209;28;20664;-65
2023/05/26 02:52:46;;;;;;;22.47;4.70;;;;;;;;;;4989894;28;20193;-65
2023/05/26 02:55:13;;;;;;;14.00;4.00;;;;;;;;;;4989739;28;20267;-66
2023/05/26 02:57:40;;;;;;;15.03;3.53;;;;;;;;;;4972455;28;20192;-65
2023/05/26 03:00:13;;;;;;;14.80;4.10;;;;;;;;;;4990049;28;20243;-65
2023/05/26 03:02:40;;;;;;;12.93;3.47;;;;;;;;;;4972825;28;20216;-65
2023/05/26 03:05:07;;;;;;;15.50;4.00;;;;;;;;;;4990045;28;20213;-65
2023/05/26 03:07:34;;;;;;;14.57;3.73;;;;;;;;;;4972509;28;20745;-65
2023/05/26 03:10:02;;;;;;;16.27;4.07;;;;;;;;;;4972383;28;20669;-65
2023/05/26 03:12:29;;;;;;;15.83;3.60;;;;;;;;;;4989934;28;20189;-65
2023/05/26 03:14:56;;;;;;;10.97;3.43;;;;;;;;;;4972761;28;20668;-65
2023/05/26 03:17:22;;;;;;;16.83;3.53;;;;;;;;;;5007231;28;20227;-65
2023/05/26 03:19:50;;;;;;;18.23;3.80;;;;;;;;;;4991716;28;20307;-65
2023/05/26 03:22:16;;;;;;;16.10;3.80;;;;;;;;;;4991658;28;20204;-66
2023/05/26 03:25:07;;;;;;;13.47;3.73;;;;;;;;;;4991593;28;20199;-65
2023/05/26 03:27:41;;;;;;;12.93;3.27;;;;;;;;;;4991731;28;20208;-65
2023/05/26 03:30:08;;;;;;;14.03;3.77;;;;;;;;;;4994222;28;20684;-67
2023/05/26 03:32:39;;;;;;;18.20;4.20;;;;;;;;;;4995342;28;20196;-65
2023/05/26 03:35:06;;;;;;;15.07;3.53;;;;;;;;;;4995210;28;20192;-66
2023/05/26 03:37:34;;;;;;;10.77;3.37;;;;;;;;;;4995290;28;20184;-65
2023/05/26 03:40:02;;;;;;;10.97;4.20;;;;;;;;;;4995332;28;20270;-65
2023/05/26 03:42:31;;;;;;;14.50;4.20;;;;;;;;;;4995085;28;20196;-65
2023/05/26 03:45:00;;;;;;;11.63;3.20;;;;;;;;;;4995429;28;20234;-65
2023/05/26 03:47:28;;;;;;;12.60;3.30;;;;;;;;;;4994855;28;20266;-65
2023/05/26 03:49:54;;;;;;;18.23;3.90;;;;;;;;;;4994845;28;20188;-65
2023/05/26 03:52:22;;;;;;;13.03;3.43;;;;;;;;;;5012532;28;20327;-65
2023/05/26 03:54:49;;;;;;;14.73;3.57;;;;;;;;;;5012669;28;20188;-65
2023/05/26 03:57:16;;;;;;;14.47;3.53;;;;;;;;;;5012326;28;20663;-65
2023/05/26 03:59:46;;;;;;;13.87;3.50;;;;;;;;;;4994946;28;20673;-66
2023/05/26 04:02:12;;;;;;;10.83;3.10;;;;;;;;;;5012826;28;20216;-65
2023/05/26 04:04:39;;;;;;;17.80;3.93;;;;;;;;;;5012629;28;20184;-65
2023/05/26 04:07:06;;;;;;;17.00;3.67;;;;;;;;;;5012482;28;20188;-65
2023/05/26 04:09:35;;;;;;;15.70;3.50;;;;;;;;;;4978727;28;20266;-65
2023/05/26 04:12:01;;;;;;;12.73;3.50;;;;;;;;;;4994894;28;20250;-64
2023/05/26 04:14:28;;;;;;;18.60;4.20;;;;;;;;;;4994333;28;20228;-66
2023/05/26 04:16:55;;;;;;;14.20;4.13;;;;;;;;;;4980451;28;20229;-65
2023/05/26 04:19:22;;;;;;;16.10;3.30;;;;;;;;;;4992468;28;20185;-66
2023/05/26 04:21:49;;;;;;;13.03;3.70;;;;;;;;;;4992368;28;20570;-65
2023/05/26 04:24:16;;;;;;;20.17;5.27;;;;;;;;;;4992412;28;20584;-65
2023/05/26 04:26:43;;;;;;;14.27;3.30;;;;;;;;;;4992566;28;20700;-65
2023/05/26 04:29:31;;;;;;;16.87;4.10;;;;;;;;;;4974770;28;20234;-66
2023/05/26 04:32:08;;;;;;;12.90;3.23;;;;;;;;;;4974742;28;20208;-67
2023/05/26 04:34:40;;;;;;;14.43;3.90;;;;;;;;;;4974754;28;20236;-65
2023/05/26 04:37:14;;;;;;;12.43;3.97;;;;;;;;;;4991999;28;20662;-65
2023/05/26 04:39:41;;;;;;;18.67;4.57;;;;;;;;;;4992086;28;20623;-65
2023/05/26 04:42:08;;;;;;;16.50;5.23;;;;;;;;;;4991090;28;20224;-65
2023/05/26 04:44:37;;;;;;;18.87;4.67;;;;;;;;;;4992324;28;20186;-65
2023/05/26 04:47:08;;;;;;;15.57;4.63;;;;;;;;;;4974321;28;20197;-66
2023/05/26 04:49:36;;;;;;;20.73;5.33;;;;;;;;;;4974649;28;20203;-65
2023/05/26 04:52:02;;;;;;;14.10;3.30;;;;;;;;;;4974601;28;20272;-65
2023/05/26 04:54:31;;;;;;;15.60;3.77;;;;;;;;;;4974201;28;20726;-65
2023/05/26 04:56:57;;;;;;;11.67;2.97;;;;;;;;;;4974326;28;20209;-65
2023/05/26 04:59:41;;;;;;;11.60;3.67;;;;;;;;;;4974312;28;20221;-65
2023/05/26 05:02:08;;;;;;;12.17;3.10;;;;;;;;;;4974121;28;20196;-65
2023/05/26 05:04:51;;;;;;;11.83;3.03;;;;;;;;;;4974147;28;20549;-65
2023/05/26 05:07:18;;;;;;;11.33;3.47;;;;;;;;;;4991337;28;20272;-65
2023/05/26 05:09:45;;;;;;;17.77;3.53;;;;;;;;;;4974418;28;20400;-65
2023/05/26 05:12:12;;;;;;;17.07;3.23;;;;;;;;;;4974086;28;20287;-65
2023/05/26 05:14:40;;;;;;;14.37;3.50;;;;;;;;;;4974259;28;20667;-64
2023/05/26 05:17:07;;;;;;;13.73;2.90;;;;;;;;;;5006683;28;20721;-66
2023/05/26 05:19:33;;;;;;;17.67;3.80;;;;;;;;;;5010886;28;20547;-64
2023/05/26 05:22:00;;;;;;;11.33;3.37;;;;;;;;;;5010875;28;20176;-64
2023/05/26 05:24:27;;;;;;;11.37;2.83;;;;;;;;;;4992931;28;20203;-65
2023/05/26 05:26:54;;;;;;;14.13;3.00;;;;;;;;;;4993463;28;20200;-64
2023/05/26 05:29:23;;;;;;;13.63;3.00;;;;;;;;;;4993205;28;20388;-65
2023/05/26 05:31:52;;;;;;;12.43;3.40;;;;;;;;;;5010744;28;20200;-64
2023/05/26 05:34:20;;;;;;;12.37;3.03;;;;;;;;;;4993171;28;20250;-65
2023/05/26 05:36:46;;;;;;;17.20;3.70;;;;;;;;;;4993022;28;20204;-64
2023/05/26 05:39:14;;;;;;;14.70;3.23;;;;;;;;;;4992718;28;20207;-66
2023/05/26 05:41:41;;;;;;;10.97;2.93;;;;;;;;;;4993226;28;20235;-65
2023/05/26 05:44:09;;;;;;;11.70;3.23;;;;;;;;;;4976536;28;20315;-66
2023/05/26 05:46:36;;;;;;;16.43;3.57;;;;;;;;;;4992843;28;20385;-65
2023/05/26 05:49:13;;;;;;;11.80;2.97;;;;;;;;;;4992550;28;20202;-65
2023/05/26 05:51:44;;;;;;;13.03;3.10;;;;;;;;;;4977297;28;20204;-64
2023/05/26 05:54:11;;;;;;;11.27;2.73;;;;;;;;;;4992446;28;20231;-65
2023/05/26 05:56:38;;;;;;;11.47;2.90;;;;;;;;;;4976944;28;20188;-65
2023/05/26 05:59:08;;;;;;;13.10;3.53;;;;;;;;;;4969177;28;20208;-65
2023/05/26 06:01:34;;;;;;;14.50;4.03;;;;;;;;;;4992772;28;20625;-65
2023/05/26 06:04:02;;;;;;;11.03;2.90;;;;;;;;;;4992535;28;20291;-65
2023/05/26 06:06:31;;;;;;;15.63;3.37;;;;;;;;;;4992855;28;20540;-65
2023/05/26 06:08:58;;;;;;;12.67;3.43;;;;;;;;;;5010064;28;20196;-65
2023/05/26 06:11:26;;;;;;;12.57;3.23;;;;;;;;;;4992393;28;20230;-65
2023/05/26 06:13:52;;;;;;;17.77;3.53;;;;;;;;;;4992078;28;20629;-65
2023/05/26 06:16:20;;;;;;;14.63;3.83;;;;;;;;;;4983217;28;20283;-66
2023/05/26 06:18:46;;;;;;;21.00;4.10;;;;;;;;;;4956999;28;20209;-65
2023/05/26 06:21:13;;;;;;;19.30;3.87;;;;;;;;;;4973069;28;20615;-65
2023/05/26 06:27:38;;;;;;;14.37;3.13;;;;;;;;;;4990395;28;20654;-64
2023/05/26 06:30:07;;;;;;;15.10;3.20;;;;;;;;;;4972456;28;20201;-64
2023/05/26 06:32:35;;;;;;;14.03;3.27;;;;;;;;;;4973043;28;20236;-65
2023/05/26 06:35:03;;;;;;;15.10;3.50;;;;;;;;;;4972764;28;20231;-65
2023/05/26 06:37:30;;;;;;;10.30;3.03;;;;;;;;;;4972712;28;20622;-65
2023/05/26 06:39:57;;;;;;;15.50;4.77;;;;;;;;;;4972513;28;20197;-65
2023/05/26 06:42:30;;;;;;;16.47;3.83;;;;;;;;;;4990266;28;20205;-65
2023/05/26 06:44:58;;;;;;;15.67;3.63;;;;;;;;;;4972690;28;20193;-65
2023/05/26 06:47:25;;;;;;;13.53;2.93;;;;;;;;;;4972655;28;20197;-65
2023/05/26 06:50:05;;;;;;;13.00;3.00;;;;;;;;;;4972559;28;20200;-65
2023/05/26 06:52:32;;;;;;;12.73;2.83;;;;;;;;;;4972633;28;20227;-64
2023/05/26 06:55:00;;;;;;;16.07;2.93;;;;;;;;;;4972344;28;20219;-65
2023/05/26 06:57:28;;;;;;;14.13;3.00;;;;;;;;;;4972449;28;20204;-65
2023/05/26 06:59:55;;;;;;;12.10;3.57;;;;;;;;;;4972366;28;20192;-65
2023/05/26 07:02:23;;;;;;;10.50;3.03;;;;;;;;;;4972479;28;20937;-65
2023/05/26 07:04:59;;;;;;;10.03;2.63;;;;;;;;;;4974461;28;20239;-65
2023/05/26 07:07:27;;;;;;;9.93;2.73;;;;;;;;;;4976380;28;20248;-65
2023/05/26 07:09:55;;;;;;;17.10;3.77;;;;;;;;;;4976327;28;20291;-65
2023/05/26 07:12:22;;;;;;;13.90;3.20;;;;;;;;;;4976378;28;20211;-65
2023/05/26 07:14:52;;;;;;;12.40;3.37;;;;;;;;;;4976324;28;20203;-65
2023/05/26 07:17:20;;;;;;;11.00;3.13;;;;;;;;;;4977249;28;20282;-65
2023/05/26 07:19:47;;;;;;;12.93;2.77;;;;;;;;;;4995586;28;20598;-64
2023/05/26 07:22:14;;;;;;;10.23;3.23;;;;;;;;;;4995842;28;20610;-64
2023/05/26 07:24:54;;;;;;;15.20;3.13;;;;;;;;;;4995259;28;20717;-65
2023/05/26 07:27:30;;;;;;;12.97;3.03;;;;;;;;;;4995503;28;20714;-64
2023/05/26 07:29:58;;;;;;;14.10;3.27;;;;;;;;;;4995277;28;20202;-65
2023/05/26 07:32:25;;;;;;;14.10;3.37;;;;;;;;;;4995350;28;20215;-64
2023/05/26 07:34:53;;;;;;;13.13;2.87;;;;;;;;;;4995264;28;20207;-65
2023/05/26 07:37:20;;;;;;;12.77;3.50;;;;;;;;;;4995448;28;20192;-64
2023/05/26 07:39:47;;;;;;;11.70;3.40;;;;;;;;;;5012777;28;20184;-65
2023/05/26 07:42:14;;;;;;;16.97;3.53;;;;;;;;;;5012747;28;20758;-64
2023/05/26 07:44:42;;;;;;;13.83;3.20;;;;;;;;;;4995928;28;20250;-64
2023/05/26 07:47:09;;;;;;;12.97;3.70;;;;;;;;;;5012639;28;20189;-64
2023/05/26 07:49:36;;;;;;;11.97;3.00;;;;;;;;;;5012596;28;20207;-64
2023/05/26 07:52:02;;;;;;;24.50;3.30;;;;;;;;;;5012767;28;20195;-65
2023/05/26 07:54:32;;;;;;;12.73;3.27;;;;;;;;;;5012442;28;20196;-65
2023/05/26 07:56:59;;;;;;;10.40;3.47;;;;;;;;;;4994877;28;20200;-65
2023/05/26 07:59:26;;;;;;;13.37;2.90;;;;;;;;;;5012259;28;20191;-65
2023/05/26 08:01:53;;;;;;;16.13;3.60;;;;;;;;;;5012362;28;20227;-65
2023/05/26 08:04:20;;;;;;;11.00;3.30;;;;;;;;;;5012409;28;20247;-65
2023/05/26 08:06:47;;;;;;;15.43;3.17;;;;;;;;;;5012317;28;20196;-65
2023/05/26 08:09:14;;;;;;;13.07;3.37;;;;;;;;;;4994533;28;20184;-65
2023/05/26 08:11:41;;;;;;;7.30;2.67;;;;;;;;;;5012502;28;20238;-65
2023/05/26 08:14:07;;;;;;;13.30;3.80;;;;;;;;;;5011954;28;20181;-65
2023/05/26 08:16:34;;;;;;;16.37;3.43;;;;;;;;;;4999344;28;20276;-64
2023/05/26 08:19:01;;;;;;;12.17;3.70;;;;;;;;;;4992714;28;20196;-65
2023/05/26 08:21:28;;;;;;;13.83;3.30;;;;;;;;;;4992660;28;20315;-65
2023/05/26 08:23:54;;;;;;;14.50;3.27;;;;;;;;;;4992722;28;20585;-65
2023/05/26 08:26:21;;;;;;;17.17;3.70;;;;;;;;;;4992341;28;20718;-65
2023/05/26 08:28:48;;;;;;;16.13;3.37;;;;;;;;;;4992015;28;20193;-65
2023/05/26 08:31:15;;;;;;;40.67;5.97;;;;;;;;;;4992233;28;20215;-65
2023/05/26 08:33:42;;;;;;;11.67;3.20;;;;;;;;;;4992615;28;20561;-65
2023/05/26 08:36:09;;;;;;;12.77;3.43;;;;;;;;;;4992116;28;20595;-65
2023/05/26 08:38:36;;;;;;;9.43;3.20;;;;;;;;;;4992331;28;20280;-66
2023/05/26 08:41:04;;;;;;;48.67;5.83;;;;;;;;;;4991884;28;20214;-65
2023/05/26 08:43:53;;;;;;;13.50;3.37;;;;;;;;;;4992024;28;20248;-65
2023/05/26 08:46:32;;;;;;;17.60;4.10;;;;;;;;;;4987420;28;20204;-65
2023/05/26 08:48:58;;;;;;;15.20;3.50;;;;;;;;;;4991860;28;20644;-65
2023/05/26 08:51:25;;;;;;;11.73;3.43;;;;;;;;;;4991860;28;20196;-65
2023/05/26 08:53:52;;;;;;;18.10;4.10;;;;;;;;;;4974686;28;20188;-65
2023/05/26 08:56:21;;;;;;;14.47;4.10;;;;;;;;;;4991588;28;20193;-65
2023/05/26 08:58:47;;;;;;;11.73;3.30;;;;;;;;;;4991596;28;20196;-65
2023/05/26 09:01:14;;;;;;;9.17;3.13;;;;;;;;;;4974337;28;20213;-65
2023/05/26 09:03:41;;;;;;;29.27;5.10;;;;;;;;;;4991466;28;20227;-65
2023/05/26 09:06:08;;;;;;;13.83;3.73;;;;;;;;;;4991459;28;20275;-65
2023/05/26 09:08:35;;;;;;;13.23;3.57;;;;;;;;;;4991853;28;20227;-65
2023/05/26 09:11:20;;;;;;;9.20;2.90;;;;;;;;;;4991354;28;20204;-64
2023/05/26 09:13:53;;;;;;;17.37;3.10;;;;;;;;;;4991265;28;20243;-65
2023/05/26 09:16:21;;;;;;;8.53;3.13;;;;;;;;;;5000695;28;20234;-65
2023/05/26 09:18:48;;;;;;;10.70;2.80;;;;;;;;;;4993447;28;20191;-65
2023/05/26 09:21:14;;;;;;;9.53;2.90;;;;;;;;;;5011146;28;20216;-65
2023/05/26 09:23:41;;;;;;;11.63;3.50;;;;;;;;;;4993611;28;20211;-65
2023/05/26 09:26:08;;;;;;;10.73;2.63;;;;;;;;;;4993391;28;20234;-65
2023/05/26 09:28:35;;;;;;;10.80;3.20;;;;;;;;;;4993176;28;20192;-66
2023/05/26 09:31:02;;;;;;;11.27;2.97;;;;;;;;;;5010488;28;20196;-66
2023/05/26 09:33:29;;;;;;;10.40;3.10;;;;;;;;;;4993097;28;20207;-65
2023/05/26 09:35:56;;;;;;;12.77;3.00;;;;;;;;;;5011007;28;20188;-65
2023/05/26 09:38:22;;;;;;;14.53;3.33;;;;;;;;;;5010737;28;20188;-65
2023/05/26 09:40:50;;;;;;;10.73;2.87;;;;;;;;;;4993095;28;20204;-65
2023/05/26 09:43:20;;;;;;;14.57;3.20;;;;;;;;;;4993118;28;20623;-65
2023/05/26 09:45:46;;;;;;;10.50;3.37;;;;;;;;;;5010193;28;20196;-64
2023/05/26 09:48:14;;;;;;;11.13;3.03;;;;;;;;;;5010550;28;20634;-65
2023/05/26 09:50:41;;;;;;;9.37;2.77;;;;;;;;;;5010591;28;20192;-65
2023/05/26 09:53:11;;;;;;;12.27;3.03;;;;;;;;;;5010445;28;20239;-65
2023/05/26 09:55:39;;;;;;;9.00;2.70;;;;;;;;;;4992618;28;20181;-64
2023/05/26 09:58:06;;;;;;;9.53;2.77;;;;;;;;;;5010304;28;20214;-64
2023/05/26 10:00:33;;;;;;;10.07;3.00;;;;;;;;;;5010110;28;20184;-66
2023/05/26 10:03:03;;;;;;;19.63;3.70;;;;;;;;;;5010217;28;20691;-64
2023/05/26 10:05:40;;;;;;;12.33;2.63;;;;;;;;;;5010134;28;20323;-65
2023/05/26 10:08:06;;;;;;;10.87;2.80;;;;;;;;;;5009939;28;20195;-64
2023/05/26 10:10:33;;;;;;;10.73;3.03;;;;;;;;;;5009999;28;20191;-65
2023/05/26 10:13:02;;;;;;;9.90;2.93;;;;;;;;;;4992454;28;20282;-65
2023/05/26 10:15:29;;;;;;;8.67;2.63;;;;;;;;;;5007355;28;20408;-65
2023/05/26 10:17:58;;;;;;;9.37;3.03;;;;;;;;;;4990317;28;20291;-65
2023/05/26 10:20:31;;;;;;;10.23;3.00;;;;;;;;;;4973934;28;20195;-65
2023/05/26 10:23:03;;;;;;;8.50;3.07;;;;;;;;;;4990051;28;20338;-65
2023/05/26 10:25:52;;;;;;;12.20;3.40;;;;;;;;;;4990116;28;20255;-64
2023/05/26 10:28:23;;;;;;;9.27;3.40;;;;;;;;;;4972995;28;20181;-64
2023/05/26 10:30:49;;;;;;;7.57;2.40;;;;;;;;;;4972792;28;20703;-65
2023/05/26 10:33:17;;;;;;;13.90;2.90;;;;;;;;;;4987412;28;20197;-64
2023/05/26 10:35:56;;;;;;;7.73;2.70;;;;;;;;;;4990196;28;20235;-64
2023/05/26 10:38:26;;;;;;;12.73;3.00;;;;;;;;;;4989835;28;20231;-65
2023/05/26 10:40:54;;;;;;;10.50;3.40;;;;;;;;;;4989945;28;20668;-64
2023/05/26 10:43:22;;;;;;;10.87;3.10;;;;;;;;;;4972642;28;20601;-66
2023/05/26 10:45:55;;;;;;;10.63;3.30;;;;;;;;;;4990459;28;20220;-64
2023/05/26 10:48:34;;;;;;;8.43;3.00;;;;;;;;;;4973455;28;20224;-65
2023/05/26 10:51:23;;;;;;;13.43;3.33;;;;;;;;;;4990130;28;20172;-65
2023/05/26 10:53:51;;;;;;;8.63;2.70;;;;;;;;;;4972888;28;20280;-65
2023/05/26 10:56:18;;;;;;;13.07;3.57;;;;;;;;;;4972666;28;20211;-64
2023/05/26 10:58:45;;;;;;;8.07;2.80;;;;;;;;;;4990223;28;20189;-66
2023/05/26 11:01:15;;;;;;;9.50;2.73;;;;;;;;;;4989987;28;20287;-64
2023/05/26 11:03:43;;;;;;;12.13;3.00;;;;;;;;;;4990027;28;20271;-65
2023/05/26 11:06:13;;;;;;;9.77;3.07;;;;;;;;;;4990007;28;20196;-64
2023/05/26 11:08:44;;;;;;;14.00;3.20;;;;;;;;;;4990206;28;20193;-65
2023/05/26 11:11:38;;;;;;;11.77;2.73;;;;;;;;;;4989844;28;20264;-65
2023/05/26 11:14:06;;;;;;;7.60;2.90;;;;;;;;;;4989826;28;20192;-65
2023/05/26 11:16:35;;;;;;;10.73;3.53;;;;;;;;;;5000600;28;20571;-65
2023/05/26 11:19:03;;;;;;;13.40;3.07;;;;;;;;;;5009468;28;20678;-64
2023/05/26 11:21:31;;;;;;;14.03;3.53;;;;;;;;;;4991597;28;20296;-64
2023/05/26 11:23:58;;;;;;;11.20;2.70;;;;;;;;;;4992418;28;20242;-64
2023/05/26 11:26:28;;;;;;;11.77;3.20;;;;;;;;;;5008999;28;20691;-64
2023/05/26 11:28:54;;;;;;;13.70;3.87;;;;;;;;;;5009070;28;20203;-64
2023/05/26 11:31:21;;;;;;;12.53;3.57;;;;;;;;;;5009098;28;20192;-64
2023/05/26 11:33:48;;;;;;;11.03;3.50;;;;;;;;;;5009049;28;20686;-64
2023/05/26 11:36:16;;;;;;;12.57;3.23;;;;;;;;;;5009154;28;20188;-64
2023/05/26 11:38:43;;;;;;;11.10;3.07;;;;;;;;;;5009414;28;20196;-64
2023/05/26 11:41:11;;;;;;;16.67;3.63;;;;;;;;;;5009261;28;20671;-64
2023/05/26 11:43:38;;;;;;;13.73;3.83;;;;;;;;;;5008843;28;20671;-64
2023/05/26 11:46:06;;;;;;;15.47;3.57;;;;;;;;;;5009296;28;20188;-64
2023/05/26 11:48:36;;;;;;;11.03;3.40;;;;;;;;;;5008945;28;20314;-64
2023/05/26 11:51:06;;;;;;;15.87;4.00;;;;;;;;;;5011859;28;20275;-63
2023/05/26 11:53:33;;;;;;;14.80;3.80;;;;;;;;;;5012583;28;20192;-63
2023/05/26 11:56:07;;;;;;;11.53;3.40;;;;;;;;;;4995257;28;20223;-64
2023/05/26 11:58:37;;;;;;;14.00;4.13;;;;;;;;;;5012353;28;20243;-63
2023/05/26 12:01:04;;;;;;;15.90;4.27;;;;;;;;;;5012425;28;20239;-64
2023/05/26 12:03:36;;;;;;;12.60;3.37;;;;;;;;;;5012230;28;20274;-64
2023/05/26 12:06:22;;;;;;;14.77;3.50;;;;;;;;;;4995983;28;20200;-63
2023/05/26 12:08:55;;;;;;;12.97;3.63;;;;;;;;;;5012369;28;20208;-64
2023/05/26 12:11:22;;;;;;;12.83;3.30;;;;;;;;;;5012123;28;20184;-63
2023/05/26 12:13:50;;;;;;;13.30;3.83;;;;;;;;;;5012077;28;20656;-63
2023/05/26 12:16:24;;;;;;;14.20;3.93;;;;;;;;;;4969811;28;20817;-64
2023/05/26 12:18:51;;;;;;;13.43;3.60;;;;;;;;;;4992502;28;20275;-63
2023/05/26 12:21:18;;;;;;;15.50;3.60;;;;;;;;;;4992405;28;20247;-64
2023/05/26 12:23:46;;;;;;;13.37;3.87;;;;;;;;;;4992507;28;20188;-63
2023/05/26 12:26:22;;;;;;;11.17;3.27;;;;;;;;;;4974907;28;20192;-64
2023/05/26 12:29:08;;;;;;;15.00;3.90;;;;;;;;;;4992528;28;20283;-63
2023/05/26 12:31:55;;;;;;;15.47;3.30;;;;;;;;;;4992318;28;20540;-63
2023/05/26 12:34:23;;;;;;;11.00;3.27;;;;;;;;;;4992141;28;20599;-64
2023/05/26 12:36:50;;;;;;;8.97;3.50;;;;;;;;;;4975111;28;20251;-64
2023/05/26 12:39:17;;;;;;;15.43;3.83;;;;;;;;;;4992359;28;20193;-64
2023/05/26 12:41:45;;;;;;;13.00;3.30;;;;;;;;;;4992226;28;20240;-64
2023/05/26 12:44:12;;;;;;;12.13;3.40;;;;;;;;;;4992112;28;20193;-64
2023/05/26 12:46:40;;;;;;;12.20;2.87;;;;;;;;;;4991267;28;20204;-64
2023/05/26 12:49:08;;;;;;;12.60;3.33;;;;;;;;;;4991587;28;20272;-64
2023/05/26 12:51:38;;;;;;;9.70;3.13;;;;;;;;;;4992224;28;20273;-63
2023/05/26 12:54:06;;;;;;;12.93;3.10;;;;;;;;;;4966774;28;20216;-65
2023/05/26 12:56:33;;;;;;;15.50;3.67;;;;;;;;;;4992011;28;20170;-63
2023/05/26 12:58:59;;;;;;;9.17;2.70;;;;;;;;;;4974135;28;20228;-64
2023/05/26 13:01:40;;;;;;;12.93;2.90;;;;;;;;;;4990969;28;20201;-64
2023/05/26 13:04:08;;;;;;;9.33;3.00;;;;;;;;;;4991389;28;20272;-64
2023/05/26 13:06:36;;;;;;;12.50;3.20;;;;;;;;;;4991719;28;20667;-63
2023/05/26 13:09:04;;;;;;;10.13;2.70;;;;;;;;;;4991683;28;20267;-67
2023/05/26 13:11:32;;;;;;;10.80;2.97;;;;;;;;;;4991877;28;20185;-63
2023/05/26 13:13:59;;;;;;;144.63;15.60;;;;;;;;;;4991336;28;20192;-64
2023/05/26 13:16:30;;;;;;;11.47;2.70;;;;;;;;;;5002371;28;20195;-64
2023/05/26 13:18:58;;;;;;;19.73;3.37;;;;;;;;;;5010807;28;20197;-64
2023/05/26 13:21:26;;;;;;;8.70;2.73;;;;;;;;;;5010827;28;20258;-64
2023/05/26 13:23:55;;;;;;;8.00;2.83;;;;;;;;;;5011043;28;20549;-64
2023/05/26 13:26:26;;;;;;;12.77;3.03;;;;;;;;;;4993082;28;20557;-64
2023/05/26 13:28:53;;;;;;;13.40;3.20;;;;;;;;;;5010607;28;20279;-63
2023/05/26 13:31:20;;;;;;;24.93;4.10;;;;;;;;;;5010743;28;20200;-63
2023/05/26 13:33:48;;;;;;;13.03;2.73;;;;;;;;;;5010612;28;20185;-64
2023/05/26 13:36:14;;;;;;;12.53;3.00;;;;;;;;;;5010515;28;20223;-63
2023/05/26 13:38:41;;;;;;;12.50;3.10;;;;;;;;;;5010521;28;20203;-63
2023/05/26 13:41:10;;;;;;;10.27;3.07;;;;;;;;;;5010349;28;20186;-63
2023/05/26 13:43:40;;;;;;;8.17;2.60;;;;;;;;;;5010312;28;20219;-64
2023/05/26 13:46:07;;;;;;;9.27;2.47;;;;;;;;;;5010330;28;20287;-63
2023/05/26 13:48:33;;;;;;;8.77;2.73;;;;;;;;;;5010533;28;20703;-64
2023/05/26 13:51:01;;;;;;;14.90;2.77;;;;;;;;;;5010401;28;20282;-65
2023/05/26 13:53:28;;;;;;;12.70;2.27;;;;;;;;;;5010339;28;20192;-64
2023/05/26 13:55:55;;;;;;;9.10;2.40;;;;;;;;;;5010165;28;20192;-64
2023/05/26 13:58:24;;;;;;;13.13;3.10;;;;;;;;;;4992921;28;20187;-64
2023/05/26 14:00:51;;;;;;;9.00;2.60;;;;;;;;;;5010242;28;20192;-64
2023/05/26 14:03:18;;;;;;;8.30;2.20;;;;;;;;;;5009807;28;20303;-63
2023/05/26 14:05:45;;;;;;;7.63;2.60;;;;;;;;;;5010371;28;20192;-64
2023/05/26 14:08:12;;;;;;;10.00;2.40;;;;;;;;;;4992239;28;20287;-64
2023/05/26 14:10:38;;;;;;;9.23;2.97;;;;;;;;;;4992438;28;20693;-64
2023/05/26 14:13:05;;;;;;;12.50;2.63;;;;;;;;;;4991959;28;20212;-64
2023/05/26 14:15:32;;;;;;;9.27;2.67;;;;;;;;;;5006614;28;20177;-64
2023/05/26 14:17:58;;;;;;;11.10;2.40;;;;;;;;;;4990199;28;20264;-64
2023/05/26 14:20:28;;;;;;;10.87;2.60;;;;;;;;;;4973423;28;20203;-64
2023/05/26 14:23:15;;;;;;;15.80;2.93;;;;;;;;;;4990198;28;20271;-64
2023/05/26 14:25:42;;;;;;;9.97;2.83;;;;;;;;;;4990105;28;20188;-64
2023/05/26 14:28:08;;;;;;;10.23;2.80;;;;;;;;;;4972985;28;20500;-63
2023/05/26 14:30:35;;;;;;;15.30;3.13;;;;;;;;;;4990228;28;20288;-63
2023/05/26 14:33:05;;;;;;;16.30;3.23;;;;;;;;;;4990405;28;20247;-64
2023/05/26 14:35:32;;;;;;;9.53;2.57;;;;;;;;;;4990297;28;20201;-64
2023/05/26 14:37:58;;;;;;;10.47;2.33;;;;;;;;;;4990001;28;20216;-63
2023/05/26 14:40:25;;;;;;;9.77;2.50;;;;;;;;;;4990292;28;20197;-64
2023/05/26 14:42:54;;;;;;;9.43;2.87;;;;;;;;;;4989928;28;20360;-64
2023/05/26 14:45:21;;;;;;;8.87;2.77;;;;;;;;;;4989977;28;20180;-64
2023/05/26 14:47:48;;;;;;;11.07;2.60;;;;;;;;;;4990170;28;20671;-63
2023/05/26 14:50:15;;;;;;;10.97;2.70;;;;;;;;;;4990018;28;20648;-64
2023/05/26 14:52:42;;;;;;;10.00;2.47;;;;;;;;;;4972933;28;20545;-64
2023/05/26 14:55:09;;;;;;;9.80;2.87;;;;;;;;;;4989663;28;20185;-64
2023/05/26 14:57:35;;;;;;;8.27;2.40;;;;;;;;;;4990271;28;20197;-65
2023/05/26 15:00:03;;;;;;;11.13;2.47;;;;;;;;;;4989880;28;20189;-64
2023/05/26 15:02:30;;;;;;;10.80;2.93;;;;;;;;;;4989826;28;20208;-64
2023/05/26 15:04:57;;;;;;;7.47;2.37;;;;;;;;;;4989816;28;20200;-64
2023/05/26 15:07:24;;;;;;;8.40;2.50;;;;;;;;;;4989953;28;20197;-64
2023/05/26 15:09:52;;;;;;;11.80;2.60;;;;;;;;;;4989668;28;20479;-64
2023/05/26 15:12:18;;;;;;;9.97;2.40;;;;;;;;;;4989773;28;20181;-64
2023/05/26 15:14:45;;;;;;;10.77;2.53;;;;;;;;;;4990005;28;20193;-65
2023/05/26 15:17:14;;;;;;;11.07;2.37;;;;;;;;;;5006208;28;20263;-64
2023/05/26 15:19:40;;;;;;;8.93;2.90;;;;;;;;;;5009336;28;20215;-64